Time;durP1;ratioP1;P1;durP2;ratioP2;P2;SDS_P1;SDS_P2;PMS_P1;PMS_P2;Temp;Humidity;BMP_temperature;BMP_pressure;BME280_temperature;BME280_humidity;BME280_pressure;Samples;Min_cycle;Max_cycle;Signal;HPM_P1;HPM_P2
2023/08/24 00:02:12;;;;;;;11.05;8.60;;;15.40;90.00;;;;;;5047324;28;20090;-50
2023/08/24 00:04:40;;;;;;;10.23;9.23;;;15.40;89.90;;;;;;5041577;28;20346;-47
2023/08/24 00:07:07;;;;;;;11.05;9.32;;;15.30;89.90;;;;;;5010706;28;20422;-48
2023/08/24 00:09:35;;;;;;;11.88;8.15;;;15.30;90.10;;;;;;5023968;28;20029;-46
2023/08/24 00:12:01;;;;;;;9.32;8.30;;;15.30;90.10;;;;;;5050544;28;20537;-48
2023/08/24 00:14:27;;;;;;;14.02;10.02;;;15.30;90.20;;;;;;5044868;28;20037;-48
2023/08/24 00:16:54;;;;;;;12.43;9.13;;;15.30;90.40;;;;;;5038764;28;20022;-48
2023/08/24 00:19:21;;;;;;;10.48;8.57;;;15.30;90.40;;;;;;5029671;28;20021;-46
2023/08/24 00:21:46;;;;;;;11.60;10.35;;;15.30;90.30;;;;;;5037587;28;20432;-45
2023/08/24 00:24:13;;;;;;;11.65;8.95;;;15.30;90.30;;;;;;5042277;28;20094;-46
2023/08/24 00:26:39;;;;;;;11.20;8.98;;;15.20;90.20;;;;;;5051089;28;20697;-46
2023/08/24 00:29:09;;;;;;;14.30;9.27;;;15.20;90.10;;;;;;5047206;28;20044;-46
2023/08/24 00:31:36;;;;;;;9.85;8.75;;;15.20;90.20;;;;;;5041022;28;20040;-46
2023/08/24 00:34:09;;;;;;;13.18;10.27;;;15.20;90.20;;;;;;5048339;28;20099;-46
2023/08/24 00:36:37;;;;;;;11.93;9.32;;;15.20;90.20;;;;;;5038319;28;20120;-46
2023/08/24 00:39:06;;;;;;;10.67;9.60;;;15.10;90.20;;;;;;5051725;28;20025;-48
2023/08/24 00:41:33;;;;;;;10.55;9.55;;;15.10;90.20;;;;;;5052475;28;20374;-46
2023/08/24 00:44:01;;;;;;;9.23;8.30;;;15.10;90.30;;;;;;5044286;28;20095;-45
2023/08/24 00:46:29;;;;;;;11.23;8.57;;;15.00;90.40;;;;;;5045986;28;20700;-46
2023/08/24 00:49:02;;;;;;;10.63;8.52;;;15.00;90.30;;;;;;5054879;28;20358;-46
2023/08/24 00:51:32;;;;;;;9.18;8.27;;;14.90;90.30;;;;;;5049901;28;20454;-46
2023/08/24 00:54:00;;;;;;;9.05;8.15;;;15.00;90.50;;;;;;5053797;28;20033;-46
2023/08/24 00:56:29;;;;;;;9.23;8.20;;;15.00;90.40;;;;;;5046480;28;20029;-46
2023/08/24 00:59:00;;;;;;;8.77;7.65;;;14.90;90.70;;;;;;5050222;28;20040;-46
2023/08/24 01:01:28;;;;;;;10.68;8.55;;;15.00;90.80;;;;;;5025026;28;20029;-46
2023/08/24 01:03:57;;;;;;;8.50;7.60;;;14.90;90.70;;;;;;5036354;28;20116;-46
2023/08/24 01:06:23;;;;;;;9.43;7.75;;;14.90;90.70;;;;;;5036696;28;20052;-49
2023/08/24 01:08:50;;;;;;;9.07;7.45;;;14.90;90.80;;;;;;5053181;28;20427;-46
2023/08/24 01:11:42;;;;;;;8.10;6.80;;;14.90;90.70;;;;;;5020419;28;20028;-45
2023/08/24 01:14:16;;;;;;;7.80;7.00;;;14.90;90.80;;;;;;5044684;28;20037;-45
2023/08/24 01:16:46;;;;;;;8.70;7.20;;;14.90;90.70;;;;;;5041267;28;20025;-46
2023/08/24 01:19:35;;;;;;;10.27;7.30;;;14.90;90.70;;;;;;5053713;28;20072;-46
2023/08/24 01:22:04;;;;;;;9.18;7.15;;;14.90;90.60;;;;;;5041358;28;20029;-45
2023/08/24 01:25:03;;;;;;;8.48;6.93;;;14.80;90.50;;;;;;5029838;28;20061;-47
2023/08/24 01:27:34;;;;;;;10.27;6.82;;;14.80;90.60;;;;;;5014119;28;20105;-45
2023/08/24 01:30:07;;;;;;;9.10;7.20;;;14.70;90.60;;;;;;5046286;28;20340;-45
2023/08/24 01:32:39;;;;;;;9.45;6.80;;;14.80;90.70;;;;;;5048350;28;20072;-47
2023/08/24 01:35:08;;;;;;;8.45;7.35;;;14.80;90.70;;;;;;5048246;28;20393;-46
2023/08/24 01:37:38;;;;;;;8.32;7.50;;;14.80;90.70;;;;;;5045376;28;20041;-45
2023/08/24 01:40:30;;;;;;;9.85;7.53;;;14.80;90.60;;;;;;5051017;28;20035;-45
2023/08/24 01:43:02;;;;;;;7.95;7.18;;;14.80;90.70;;;;;;5027461;28;20021;-45
2023/08/24 01:45:32;;;;;;;8.93;7.07;;;14.80;90.60;;;;;;5038686;28;20034;-45
2023/08/24 01:48:03;;;;;;;9.15;6.75;;;14.80;90.70;;;;;;5029628;28;20120;-46
2023/08/24 01:50:35;;;;;;;8.38;7.00;;;14.80;90.70;;;;;;5014973;28;20483;-45
2023/08/24 01:53:05;;;;;;;8.10;7.30;;;14.70;90.60;;;;;;5048502;28;20402;-45
2023/08/24 01:55:32;;;;;;;9.07;8.10;;;14.70;90.90;;;;;;5049412;28;20025;-45
2023/08/24 01:57:58;;;;;;;8.43;7.47;;;14.70;90.90;;;;;;5036720;28;20029;-45
2023/08/24 02:00:25;;;;;;;7.70;6.70;;;14.80;91.10;;;;;;5029911;28;20367;-45
2023/08/24 02:02:57;;;;;;;7.32;6.63;;;14.80;91.00;;;;;;5034023;28;20032;-45
2023/08/24 02:05:24;;;;;;;10.18;8.18;;;14.80;90.90;;;;;;5036421;28;20177;-47
2023/08/24 02:07:52;;;;;;;8.48;7.28;;;14.80;90.90;;;;;;5048300;28;20036;-45
2023/08/24 02:10:20;;;;;;;8.15;7.35;;;14.80;91.00;;;;;;5052414;28;20036;-47
2023/08/24 02:12:48;;;;;;;9.20;7.88;;;14.80;90.90;;;;;;5038508;28;20033;-45
2023/08/24 02:15:15;;;;;;;9.40;7.28;;;14.80;91.10;;;;;;5022196;28;20041;-44
2023/08/24 02:17:44;;;;;;;8.57;7.35;;;14.80;91.20;;;;;;5013917;28;20050;-45
2023/08/24 02:20:17;;;;;;;8.10;6.93;;;14.80;91.20;;;;;;5013581;28;20025;-45
2023/08/24 02:22:43;;;;;;;9.10;6.75;;;14.80;91.20;;;;;;5031243;28;20133;-46
2023/08/24 02:25:10;;;;;;;9.27;8.00;;;14.80;91.30;;;;;;5027392;28;20119;-44
2023/08/24 02:27:37;;;;;;;9.23;8.23;;;14.80;91.30;;;;;;5035711;28;20036;-47
2023/08/24 02:30:04;;;;;;;10.82;8.55;;;14.80;91.30;;;;;;5030142;28;20033;-46
2023/08/24 02:32:31;;;;;;;9.50;8.60;;;14.80;91.30;;;;;;5050604;28;20748;-46
2023/08/24 02:34:58;;;;;;;11.73;8.25;;;14.80;91.30;;;;;;5021831;28;20136;-45
2023/08/24 02:37:25;;;;;;;9.18;8.25;;;14.80;91.20;;;;;;5028214;28;20546;-45
2023/08/24 02:40:02;;;;;;;9.80;8.80;;;14.80;91.30;;;;;;5046496;28;20109;-45
2023/08/24 02:42:37;;;;;;;9.63;8.63;;;14.80;91.30;;;;;;5013324;28;20030;-45
2023/08/24 02:45:04;;;;;;;9.98;9.07;;;14.80;91.30;;;;;;5031540;28;20363;-45
2023/08/24 02:47:29;;;;;;;9.27;8.30;;;14.80;91.20;;;;;;5034006;28;20099;-46
2023/08/24 02:49:58;;;;;;;11.45;9.65;;;14.80;91.30;;;;;;5041961;28;20041;-45
2023/08/24 02:52:25;;;;;;;11.77;9.73;;;14.70;91.30;;;;;;5033904;28;20041;-44
2023/08/24 02:54:52;;;;;;;9.50;8.50;;;14.70;91.30;;;;;;5050041;28;20032;-45
2023/08/24 02:57:18;;;;;;;10.68;9.55;;;14.80;91.40;;;;;;5048796;28;20162;-45
2023/08/24 02:59:44;;;;;;;9.65;8.73;;;14.70;91.30;;;;;;5041926;28;20437;-44
2023/08/24 03:02:11;;;;;;;10.13;9.13;;;14.70;91.30;;;;;;5047880;28;20044;-44
2023/08/24 03:04:38;;;;;;;12.63;9.77;;;14.70;91.40;;;;;;5048707;28;20039;-45
2023/08/24 03:07:08;;;;;;;11.93;9.60;;;14.70;91.30;;;;;;5038937;28;20029;-44
2023/08/24 03:09:37;;;;;;;11.40;10.27;;;14.70;91.30;;;;;;5050834;28;20053;-46
2023/08/24 03:12:06;;;;;;;12.05;9.90;;;14.70;91.30;;;;;;5041213;28;20038;-45
2023/08/24 03:14:34;;;;;;;11.38;10.30;;;14.70;91.30;;;;;;5019432;28;20026;-43
2023/08/24 03:17:02;;;;;;;11.00;9.93;;;14.70;91.40;;;;;;5044489;28;20106;-44
2023/08/24 03:19:31;;;;;;;11.52;10.05;;;14.60;91.50;;;;;;5029790;28;20026;-44
2023/08/24 03:21:58;;;;;;;9.80;8.87;;;14.70;91.50;;;;;;5019751;28;20411;-45
2023/08/24 03:24:25;;;;;;;10.73;9.63;;;14.60;91.40;;;;;;5047307;28;20068;-45
2023/08/24 03:26:52;;;;;;;9.73;8.77;;;14.60;91.50;;;;;;5047780;28;20051;-45
2023/08/24 03:29:18;;;;;;;9.57;8.57;;;14.60;91.60;;;;;;5043084;28;20033;-45
2023/08/24 03:31:44;;;;;;;21.30;10.63;;;14.60;91.60;;;;;;5049446;28;20058;-49
2023/08/24 03:34:11;;;;;;;11.02;8.80;;;14.60;91.60;;;;;;5020377;28;20044;-44
2023/08/24 03:36:38;;;;;;;9.45;8.55;;;14.60;91.60;;;;;;5043493;28;20033;-44
2023/08/24 03:39:05;;;;;;;10.25;8.88;;;14.60;91.50;;;;;;5048594;28;20406;-44
2023/08/24 03:41:38;;;;;;;9.18;8.20;;;14.60;91.10;;;;;;5034886;28;20013;-44
2023/08/24 03:44:04;;;;;;;8.25;7.45;;;14.50;91.00;;;;;;5043525;28;20474;-45
2023/08/24 03:46:31;;;;;;;9.73;8.30;;;14.50;91.30;;;;;;5036748;28;20057;-44
2023/08/24 03:48:59;;;;;;;9.75;8.85;;;14.50;91.10;;;;;;5042790;28;20057;-45
2023/08/24 03:51:29;;;;;;;12.15;8.70;;;14.40;91.10;;;;;;5049108;28;20135;-46
2023/08/24 03:53:59;;;;;;;9.70;8.80;;;14.40;91.10;;;;;;5045290;28;20079;-44
2023/08/24 03:56:25;;;;;;;9.57;8.57;;;14.40;91.30;;;;;;5032901;28;20720;-44
2023/08/24 03:58:53;;;;;;;9.95;8.95;;;14.40;91.40;;;;;;5034866;28;20029;-44
2023/08/24 04:01:23;;;;;;;10.48;9.50;;;14.40;91.30;;;;;;5023335;28;20060;-44
2023/08/24 04:03:49;;;;;;;8.70;7.88;;;14.40;91.40;;;;;;5029972;28;20038;-44
2023/08/24 04:06:19;;;;;;;10.35;8.40;;;14.40;91.40;;;;;;5028782;28;20467;-43
2023/08/24 04:08:47;;;;;;;9.30;8.40;;;14.40;91.30;;;;;;5023566;28;20042;-43
2023/08/24 04:11:20;;;;;;;9.05;8.15;;;14.40;91.40;;;;;;5023609;28;20403;-44
2023/08/24 04:13:47;;;;;;;10.05;8.95;;;14.30;91.40;;;;;;5024320;28;20028;-44
2023/08/24 04:16:12;;;;;;;9.38;8.52;;;14.30;91.30;;;;;;5031649;28;20060;-43
2023/08/24 04:18:40;;;;;;;9.75;8.45;;;14.30;91.20;;;;;;5051503;28;20064;-44
2023/08/24 04:21:09;;;;;;;9.10;8.20;;;14.30;91.30;;;;;;5032592;28;20529;-44
2023/08/24 04:23:36;;;;;;;9.88;8.20;;;14.30;91.40;;;;;;5031142;28;20038;-44
2023/08/24 04:26:05;;;;;;;10.70;9.32;;;14.30;91.50;;;;;;5018128;28;20033;-44
2023/08/24 04:28:30;;;;;;;11.40;8.20;;;14.30;91.70;;;;;;5032957;28;20159;-45
2023/08/24 04:31:00;;;;;;;11.45;8.60;;;14.40;91.90;;;;;;5034184;28;20116;-44
2023/08/24 04:33:28;;;;;;;9.55;8.55;;;14.40;92.00;;;;;;5015451;28;20087;-44
2023/08/24 04:35:53;;;;;;;10.48;8.00;;;14.50;92.10;;;;;;5015043;28;20038;-45
2023/08/24 04:38:23;;;;;;;8.73;7.63;;;14.50;92.20;;;;;;5049979;28;20496;-43
2023/08/24 04:41:08;;;;;;;9.23;7.93;;;14.60;92.20;;;;;;5044295;28;20032;-44
2023/08/24 04:43:38;;;;;;;9.95;7.45;;;14.60;92.30;;;;;;5055220;28;20029;-45
2023/08/24 04:46:07;;;;;;;8.73;7.82;;;14.70;92.30;;;;;;5038882;28;20339;-45
2023/08/24 04:48:36;;;;;;;9.43;7.93;;;14.80;92.30;;;;;;5038860;28;20087;-44
2023/08/24 04:51:02;;;;;;;9.18;8.27;;;14.80;92.40;;;;;;5014797;28;20435;-44
2023/08/24 04:53:29;;;;;;;10.10;8.05;;;14.90;92.40;;;;;;5048991;28;20073;-44
2023/08/24 04:55:56;;;;;;;8.50;7.50;;;14.90;92.50;;;;;;5055022;28;20387;-45
2023/08/24 04:58:23;;;;;;;9.43;8.52;;;15.00;92.60;;;;;;5042984;28;20021;-46
2023/08/24 05:00:51;;;;;;;7.82;7.05;;;15.00;92.60;;;;;;5031048;28;20035;-45
2023/08/24 05:03:21;;;;;;;11.18;8.13;;;15.00;92.70;;;;;;5045286;28;20072;-46
2023/08/24 05:05:47;;;;;;;9.13;7.45;;;15.10;92.70;;;;;;5032803;28;20041;-45
2023/08/24 05:08:15;;;;;;;7.80;7.03;;;15.20;92.50;;;;;;5044357;28;20040;-45
2023/08/24 05:10:43;;;;;;;7.78;7.07;;;15.20;92.60;;;;;;5053811;28;20029;-44
2023/08/24 05:13:10;;;;;;;10.13;6.75;;;15.20;92.60;;;;;;5052432;28;20052;-46
2023/08/24 05:15:37;;;;;;;10.90;8.40;;;15.30;92.60;;;;;;5032456;28;20040;-46
2023/08/24 05:18:06;;;;;;;9.68;8.07;;;15.20;92.50;;;;;;5033437;28;20025;-45
2023/08/24 05:20:33;;;;;;;12.10;8.38;;;15.30;92.50;;;;;;5014952;28;20040;-45
2023/08/24 05:23:00;;;;;;;11.20;8.63;;;15.30;92.40;;;;;;5034000;28;20029;-44
2023/08/24 05:25:28;;;;;;;8.85;7.95;;;15.30;92.50;;;;;;5051175;28;20814;-43
2023/08/24 05:27:54;;;;;;;9.00;8.10;;;15.30;92.50;;;;;;5049455;28;20478;-45
2023/08/24 05:30:24;;;;;;;7.25;6.55;;;15.40;92.60;;;;;;5032031;28;20026;-46
2023/08/24 05:32:51;;;;;;;7.60;6.70;;;15.40;92.60;;;;;;5050859;28;20033;-44
2023/08/24 05:35:18;;;;;;;7.45;6.45;;;15.40;92.40;;;;;;5042976;28;20046;-45
2023/08/24 05:37:45;;;;;;;7.35;6.47;;;15.40;92.30;;;;;;5035957;28;20037;-45
2023/08/24 05:40:13;;;;;;;9.60;6.07;;;15.40;92.20;;;;;;5034270;28;20489;-43
2023/08/24 05:42:41;;;;;;;6.63;5.63;;;15.40;92.20;;;;;;5038627;28;20030;-44
2023/08/24 05:45:07;;;;;;;6.75;5.90;;;15.30;92.20;;;;;;5031173;28;20021;-44
2023/08/24 05:47:34;;;;;;;7.38;6.07;;;15.30;92.30;;;;;;5038807;28;20032;-44
2023/08/24 05:50:01;;;;;;;6.85;5.88;;;15.30;92.30;;;;;;5049813;28;20158;-44
2023/08/24 05:52:27;;;;;;;9.10;6.88;;;15.40;92.40;;;;;;5046644;28;20346;-44
2023/08/24 05:54:53;;;;;;;8.43;7.53;;;15.40;92.40;;;;;;5014418;28;20033;-46
2023/08/24 05:57:24;;;;;;;9.60;7.78;;;15.40;92.40;;;;;;5014382;28;20034;-43
2023/08/24 05:59:51;;;;;;;9.15;6.30;;;15.40;92.50;;;;;;5020092;28;20021;-44
2023/08/24 06:02:19;;;;;;;8.40;6.75;;;15.40;92.50;;;;;;5046693;28;20025;-44
2023/08/24 06:04:46;;;;;;;11.00;8.05;;;15.50;92.60;;;;;;5045926;28;20044;-44
2023/08/24 06:07:13;;;;;;;9.35;7.20;;;15.50;92.60;;;;;;5027322;28;20160;-44
2023/08/24 06:09:41;;;;;;;11.88;8.68;;;15.60;92.60;;;;;;5042180;28;20439;-44
2023/08/24 06:12:12;;;;;;;10.23;7.90;;;15.60;92.60;;;;;;5052391;28;20029;-46
2023/08/24 06:14:40;;;;;;;10.98;7.93;;;15.60;92.70;;;;;;5039390;28;20034;-45
2023/08/24 06:17:06;;;;;;;8.98;7.70;;;15.70;92.70;;;;;;5044805;28;20068;-44
2023/08/24 06:19:32;;;;;;;10.95;8.02;;;15.80;92.80;;;;;;5053450;28;20025;-45
2023/08/24 06:22:00;;;;;;;12.18;7.53;;;15.90;92.90;;;;;;5043624;28;20029;-44
2023/08/24 06:24:30;;;;;;;9.68;6.30;;;15.90;92.80;;;;;;5042132;28;20105;-44
2023/08/24 06:26:58;;;;;;;10.43;7.45;;;16.00;92.80;;;;;;5031611;28;20029;-44
2023/08/24 06:29:27;;;;;;;11.45;8.00;;;16.00;92.80;;;;;;5041280;28;20041;-44
2023/08/24 06:31:57;;;;;;;8.52;6.40;;;16.10;92.90;;;;;;5035861;28;20500;-43
2023/08/24 06:34:25;;;;;;;8.25;5.88;;;16.10;92.80;;;;;;5043840;28;20057;-43
2023/08/24 06:36:53;;;;;;;8.50;6.35;;;16.20;92.90;;;;;;5032844;28;20068;-43
2023/08/24 06:39:20;;;;;;;10.25;5.82;;;16.30;92.90;;;;;;5032708;28;20116;-46
2023/08/24 06:41:47;;;;;;;9.20;7.78;;;16.30;92.90;;;;;;5013476;28;20362;-44
2023/08/24 06:44:15;;;;;;;7.95;5.70;;;16.40;92.90;;;;;;5012665;28;20354;-44
2023/08/24 06:46:42;;;;;;;8.77;6.03;;;16.40;92.80;;;;;;5037686;28;20464;-44
2023/08/24 06:49:09;;;;;;;9.40;6.03;;;16.50;92.80;;;;;;5049097;28;20035;-43
2023/08/24 06:51:35;;;;;;;11.48;4.80;;;16.60;92.70;;;;;;5029796;28;20142;-44
2023/08/24 06:54:02;;;;;;;8.85;4.70;;;16.60;92.60;;;;;;5046946;28;20021;-44
2023/08/24 06:56:29;;;;;;;9.48;3.80;;;16.70;92.50;;;;;;5039108;28;20022;-44
2023/08/24 06:58:56;;;;;;;7.45;4.15;;;16.70;92.40;;;;;;5025069;28;20036;-44
2023/08/24 07:01:25;;;;;;;8.25;5.55;;;16.80;92.30;;;;;;5047882;28;20052;-45
2023/08/24 07:03:52;;;;;;;11.80;6.25;;;16.90;92.30;;;;;;5036293;28;20025;-46
2023/08/24 07:06:19;;;;;;;9.95;6.80;;;17.00;92.20;;;;;;5046067;28;20041;-45
2023/08/24 07:08:47;;;;;;;8.18;6.25;;;17.10;92.20;;;;;;5031040;28;20029;-47
2023/08/24 07:11:15;;;;;;;12.98;7.00;;;17.20;91.90;;;;;;5037373;28;20454;-45
2023/08/24 07:13:43;;;;;;;8.50;5.25;;;17.20;91.80;;;;;;5035333;28;20037;-45
2023/08/24 07:16:13;;;;;;;11.23;5.72;;;17.40;91.60;;;;;;5035462;28;20028;-45
2023/08/24 07:18:40;;;;;;;10.88;4.70;;;17.40;91.50;;;;;;5051303;28;20470;-45
2023/08/24 07:21:07;;;;;;;8.18;4.78;;;17.50;91.30;;;;;;5040366;28;20032;-44
2023/08/24 07:23:35;;;;;;;8.52;5.28;;;17.60;91.00;;;;;;5052408;28;20040;-46
2023/08/24 07:26:03;;;;;;;7.70;4.00;;;17.60;90.70;;;;;;5031559;28;20029;-45
2023/08/24 07:28:30;;;;;;;7.07;3.63;;;17.70;90.20;;;;;;5041608;28;20499;-45
2023/08/24 07:30:59;;;;;;;8.05;3.33;;;17.70;89.80;;;;;;5048044;28;20044;-46
2023/08/24 07:33:27;;;;;;;7.28;2.88;;;17.80;89.80;;;;;;5038493;28;20126;-45
2023/08/24 07:35:55;;;;;;;10.05;4.03;;;17.90;89.70;;;;;;5049727;28;20045;-46
2023/08/24 07:38:22;;;;;;;9.23;5.55;;;18.00;89.60;;;;;;5052215;28;20426;-47
2023/08/24 07:40:49;;;;;;;16.20;5.05;;;18.20;89.10;;;;;;5017343;28;20030;-47
2023/08/24 07:43:16;;;;;;;7.45;4.68;;;18.40;89.20;;;;;;5024718;28;20484;-46
2023/08/24 07:45:43;;;;;;;6.85;4.78;;;18.40;88.00;;;;;;5042689;28;20044;-46
2023/08/24 07:48:09;;;;;;;8.15;5.40;;;18.50;87.90;;;;;;5045724;28;20078;-46
2023/08/24 07:50:36;;;;;;;7.88;4.57;;;18.80;87.40;;;;;;5039146;28;20040;-48
2023/08/24 07:53:04;;;;;;;10.48;3.80;;;19.00;86.30;;;;;;5052786;28;20369;-48
2023/08/24 07:55:35;;;;;;;5.82;2.60;;;19.30;85.10;;;;;;5055813;28;20438;-48
2023/08/24 07:58:03;;;;;;;6.00;2.38;;;19.50;83.70;;;;;;5030545;28;20442;-47
2023/08/24 08:00:31;;;;;;;6.20;2.55;;;19.90;82.40;;;;;;5045096;28;20201;-47
2023/08/24 08:02:59;;;;;;;4.05;2.08;;;20.20;80.50;;;;;;5046976;28;20104;-50
2023/08/24 08:05:26;;;;;;;5.30;2.03;;;20.60;79.50;;;;;;5030151;28;20045;-50
2023/08/24 08:07:56;;;;;;;3.95;1.73;;;20.90;78.10;;;;;;5043816;28;20086;-51
2023/08/24 08:10:24;;;;;;;1.92;0.80;;;21.30;74.20;;;;;;5051738;28;20033;-50
2023/08/24 08:12:52;;;;;;;5.13;1.83;;;21.40;73.70;;;;;;5024486;28;20041;-50
2023/08/24 08:15:22;;;;;;;3.85;1.40;;;21.70;72.80;;;;;;5041474;28;20446;-49
2023/08/24 08:17:49;;;;;;;3.85;1.05;;;22.00;72.40;;;;;;5026196;28;20025;-50
2023/08/24 08:20:16;;;;;;;5.35;1.33;;;22.40;71.60;;;;;;5034700;28;20160;-49
2023/08/24 08:22:44;;;;;;;3.38;1.08;;;22.90;70.70;;;;;;5030440;28;20074;-49
2023/08/24 08:25:17;;;;;;;3.08;1.38;;;23.20;70.90;;;;;;5042807;28;20029;-49
2023/08/24 08:27:44;;;;;;;3.72;1.23;;;23.20;68.20;;;;;;5016985;28;20030;-51
2023/08/24 08:30:20;;;;;;;4.93;1.15;;;23.30;67.10;;;;;;5045153;28;20041;-53
2023/08/24 08:32:47;;;;;;;4.88;2.03;;;23.40;65.20;;;;;;5051028;28;20042;-49
2023/08/24 08:35:15;;;;;;;4.55;1.35;;;23.30;65.10;;;;;;5014885;28;20054;-54
2023/08/24 08:37:46;;;;;;;7.32;1.75;;;23.50;66.30;;;;;;5038187;28;20026;-49
2023/08/24 08:40:15;;;;;;;7.85;1.90;;;23.70;68.10;;;;;;5037065;28;20113;-51
2023/08/24 08:42:47;;;;;;;4.28;1.67;;;23.60;67.40;;;;;;5054467;28;20025;-52
2023/08/24 08:45:15;;;;;;;4.63;1.92;;;23.90;67.20;;;;;;5033919;28;20126;-50
2023/08/24 08:47:41;;;;;;;5.32;1.73;;;24.00;66.80;;;;;;5063565;28;20124;-50
2023/08/24 08:50:10;;;;;;;4.75;1.50;;;24.00;66.60;;;;;;5046048;28;20087;-50
2023/08/24 08:52:38;;;;;;;2.83;1.33;;;24.20;66.30;;;;;;5040269;28;20068;-51
2023/08/24 08:55:10;;;;;;;7.05;1.70;;;24.40;67.30;;;;;;5015559;28;20280;-53
2023/08/24 08:57:39;;;;;;;5.32;1.90;;;24.40;65.30;;;;;;5033135;28;20040;-54
2023/08/24 09:00:09;;;;;;;5.00;1.80;;;24.40;64.90;;;;;;5038028;28;20018;-50
2023/08/24 09:02:37;;;;;;;5.07;1.50;;;24.50;64.70;;;;;;5034182;28;20025;-54
2023/08/24 09:05:06;;;;;;;3.95;1.38;;;24.40;65.90;;;;;;5053651;28;20119;-50
2023/08/24 09:07:34;;;;;;;8.50;2.75;;;24.40;65.60;;;;;;5019981;28;20112;-52
2023/08/24 09:10:07;;;;;;;5.05;1.92;;;24.50;65.60;;;;;;5053072;28;20042;-50
2023/08/24 09:12:34;;;;;;;5.53;1.58;;;24.40;65.30;;;;;;5032974;28;20409;-51
2023/08/24 09:15:08;;;;;;;5.47;1.92;;;24.60;65.10;;;;;;5047608;28;20100;-51
2023/08/24 09:17:35;;;;;;;6.35;1.90;;;24.70;63.70;;;;;;5027580;28;20037;-50
2023/08/24 09:20:09;;;;;;;6.68;1.70;;;24.80;63.40;;;;;;5052916;28;20037;-57
2023/08/24 09:22:41;;;;;;;4.97;1.75;;;24.70;63.40;;;;;;5042075;28;20022;-52
2023/08/24 09:25:10;;;;;;;6.63;1.88;;;24.90;65.30;;;;;;5043166;28;20044;-52
2023/08/24 09:27:38;;;;;;;6.57;1.63;;;24.90;63.20;;;;;;5038856;28;20040;-53
2023/08/24 09:30:09;;;;;;;5.47;2.00;;;24.90;63.70;;;;;;5050232;28;20029;-54
2023/08/24 09:32:36;;;;;;;5.05;1.17;;;24.90;64.30;;;;;;5048948;28;20021;-50
2023/08/24 09:35:11;;;;;;;8.80;3.10;;;24.90;63.60;;;;;;5018907;28;20608;-52
2023/08/24 09:37:45;;;;;;;3.45;1.33;;;25.10;62.80;;;;;;5040498;28;20037;-52
2023/08/24 09:40:13;;;;;;;4.72;1.27;;;25.10;63.20;;;;;;5032442;28;20113;-52
2023/08/24 09:42:42;;;;;;;4.57;1.83;;;25.00;61.30;;;;;;5042829;28;20033;-53
2023/08/24 09:45:22;;;;;;;5.80;2.43;;;24.80;62.60;;;;;;5033630;28;20453;-52
2023/08/24 09:47:53;;;;;;;4.13;1.60;;;24.80;62.10;;;;;;5040718;28;20362;-53
2023/08/24 09:50:21;;;;;;;5.47;1.65;;;24.90;62.20;;;;;;5054045;28;20056;-55
2023/08/24 09:52:48;;;;;;;6.55;2.33;;;25.10;64.30;;;;;;5052984;28;20033;-54
2023/08/24 09:55:22;;;;;;;4.03;1.90;;;25.00;62.50;;;;;;5053798;28;20056;-51
2023/08/24 09:57:52;;;;;;;4.07;1.92;;;25.10;63.20;;;;;;5036004;28;20030;-57
2023/08/24 10:00:22;;;;;;;5.30;1.75;;;25.10;63.40;;;;;;5042945;28;20056;-53
2023/08/24 10:02:55;;;;;;;4.80;1.67;;;25.10;64.60;;;;;;5048437;28;20024;-52
2023/08/24 10:05:25;;;;;;;5.82;2.22;;;25.20;64.40;;;;;;5036696;28;20108;-54
2023/08/24 10:07:53;;;;;;;;;;;25.10;61.00;;;;;;5038639;28;20029;-53
2023/08/24 10:10:21;;;;;;;9.07;2.85;;;24.90;62.90;;;;;;5053253;28;19909;-54
2023/08/24 10:12:57;;;;;;;5.15;2.20;;;24.80;63.10;;;;;;5034319;28;20116;-54
2023/08/24 10:15:27;;;;;;;6.05;2.83;;;24.50;66.90;;;;;;5042796;28;20036;-54
2023/08/24 10:17:54;;;;;;;5.90;3.13;;;24.60;65.10;;;;;;5037836;28;20028;-52
2023/08/24 10:20:31;;;;;;;6.65;2.55;;;24.50;64.70;;;;;;5040944;28;20033;-54
2023/08/24 10:22:59;;;;;;;4.80;2.03;;;24.40;65.60;;;;;;5053109;28;20104;-55
2023/08/24 10:25:26;;;;;;;4.07;1.70;;;24.50;65.70;;;;;;5041754;28;20083;-52
2023/08/24 10:27:54;;;;;;;6.93;2.72;;;24.50;68.30;;;;;;5060595;28;20590;-54
2023/08/24 10:30:21;;;;;;;7.45;2.42;;;24.60;65.90;;;;;;5043145;28;20073;-51
2023/08/24 10:32:53;;;;;;;4.57;2.30;;;24.60;67.30;;;;;;5033665;28;20088;-54
2023/08/24 10:35:21;;;;;;;4.88;2.25;;;24.40;66.00;;;;;;5049132;28;20041;-54
2023/08/24 10:37:47;;;;;;;5.95;2.88;;;24.40;66.90;;;;;;5025405;28;20030;-50
2023/08/24 10:40:49;;;;;;;6.00;1.73;;;24.30;65.90;;;;;;5037231;28;20102;-50
2023/08/24 10:43:16;;;;;;;6.22;2.03;;;24.10;65.00;;;;;;5043471;28;20552;-51
2023/08/24 10:46:13;;;;;;;4.95;1.90;;;24.00;67.60;;;;;;5040212;28;20100;-54
2023/08/24 10:48:42;;;;;;;4.82;1.90;;;24.10;68.00;;;;;;5028753;28;20105;-56
2023/08/24 10:51:32;;;;;;;6.10;2.00;;;23.80;66.10;;;;;;5040865;28;20179;-54
2023/08/24 10:54:17;;;;;;;4.85;2.03;;;23.70;66.90;;;;;;5038410;28;20102;-53
2023/08/24 10:56:56;;;;;;;4.50;1.77;;;23.70;66.60;;;;;;5035380;28;20045;-52
2023/08/24 10:59:23;;;;;;;4.95;2.15;;;23.90;67.80;;;;;;5017962;28;20036;-54
2023/08/24 11:01:56;;;;;;;4.40;1.73;;;23.90;67.00;;;;;;5048386;28;20025;-53
2023/08/24 11:04:22;;;;;;;8.23;2.20;;;24.00;66.80;;;;;;5014257;28;20033;-57
2023/08/24 11:07:07;;;;;;;8.38;2.30;;;24.10;67.50;;;;;;5028368;28;20383;-57
2023/08/24 11:09:48;;;;;;;6.07;2.67;;;24.10;68.00;;;;;;5033451;28;20525;-54
2023/08/24 11:12:16;;;;;;;9.25;2.88;;;23.90;66.90;;;;;;5041541;28;20048;-55
2023/08/24 11:15:01;;;;;;;5.32;2.55;;;23.90;67.60;;;;;;5046399;28;20355;-53
2023/08/24 11:17:33;;;;;;;7.30;3.80;;;23.90;66.90;;;;;;5048588;28;20025;-54
2023/08/24 11:20:01;;;;;;;6.30;2.63;;;23.90;67.70;;;;;;5021374;28;20348;-55
2023/08/24 11:22:38;;;;;;;7.57;3.55;;;23.90;68.50;;;;;;5012787;28;20099;-57
2023/08/24 11:25:05;;;;;;;7.47;3.20;;;23.90;68.40;;;;;;5013437;28;20103;-54
2023/08/24 11:27:33;;;;;;;9.32;4.15;;;23.90;68.10;;;;;;5017028;28;20033;-54
2023/08/24 11:30:00;;;;;;;4.95;3.10;;;24.00;69.20;;;;;;5031329;28;20045;-57
2023/08/24 11:32:27;;;;;;;7.93;3.08;;;24.10;68.20;;;;;;5036382;28;20076;-55
2023/08/24 11:34:59;;;;;;;10.25;3.70;;;24.00;68.00;;;;;;5046900;28;20128;-57
2023/08/24 11:37:33;;;;;;;6.95;3.15;;;24.00;68.30;;;;;;5048112;28;21686;-53
2023/08/24 11:40:01;;;;;;;6.15;2.70;;;23.90;68.50;;;;;;5037922;28;20373;-53
2023/08/24 11:42:36;;;;;;;9.88;3.60;;;23.90;68.10;;;;;;5021948;28;20022;-56
2023/08/24 11:45:12;;;;;;;7.10;3.17;;;23.90;68.40;;;;;;5011926;28;20030;-53
2023/08/24 11:47:40;;;;;;;7.68;3.70;;;23.80;69.10;;;;;;5010934;28;20045;-56
2023/08/24 11:50:08;;;;;;;7.32;3.15;;;23.80;68.60;;;;;;5012191;28;20061;-55
2023/08/24 11:52:40;;;;;;;6.65;3.13;;;23.80;68.60;;;;;;5035736;28;20040;-54
2023/08/24 11:55:08;;;;;;;4.63;3.10;;;23.80;69.00;;;;;;5027083;28;20033;-55
2023/08/24 11:57:37;;;;;;;7.30;3.63;;;23.90;69.00;;;;;;5013033;28;20169;-54
2023/08/24 12:00:13;;;;;;;8.13;3.67;;;23.80;69.20;;;;;;5024750;28;20037;-55
2023/08/24 12:02:41;;;;;;;8.20;3.42;;;23.80;69.40;;;;;;5025049;28;20060;-51
2023/08/24 12:05:07;;;;;;;4.15;2.70;;;23.80;68.70;;;;;;5010844;28;20529;-56
2023/08/24 12:07:34;;;;;;;5.55;3.15;;;23.60;69.10;;;;;;5011618;28;20103;-52
2023/08/24 12:10:01;;;;;;;7.95;2.90;;;23.70;70.40;;;;;;5011488;28;20080;-53
2023/08/24 12:12:30;;;;;;;4.07;2.58;;;23.70;69.70;;;;;;5030191;28;20041;-50
2023/08/24 12:15:01;;;;;;;8.32;3.55;;;23.80;70.70;;;;;;5046907;28;20055;-52
2023/08/24 12:17:28;;;;;;;;;;;23.80;70.70;;;;;;5048239;28;20090;-54
2023/08/24 12:20:06;;;;;;;8.25;2.80;;;23.70;69.60;;;;;;5043609;28;19913;-53
2023/08/24 12:22:33;;;;;;;10.03;2.97;;;23.70;70.20;;;;;;5024890;28;20041;-54
2023/08/24 12:25:02;;;;;;;5.95;3.00;;;23.70;70.80;;;;;;5051342;28;20282;-53
2023/08/24 12:27:29;;;;;;;6.70;2.92;;;23.70;70.90;;;;;;5035109;28;20029;-54
2023/08/24 12:29:59;;;;;;;8.30;2.92;;;23.80;71.40;;;;;;5047106;28;20090;-51
2023/08/24 12:32:47;;;;;;;4.80;2.72;;;23.80;71.30;;;;;;5030952;28;20048;-56
2023/08/24 12:35:17;;;;;;;5.57;2.75;;;23.80;71.20;;;;;;5030181;28;20795;-52
2023/08/24 12:37:45;;;;;;;5.13;2.22;;;23.80;70.60;;;;;;5031150;28;20033;-53
2023/08/24 12:40:16;;;;;;;6.05;2.60;;;23.80;71.70;;;;;;5040193;28;20338;-54
2023/08/24 12:42:41;;;;;;;5.65;2.60;;;23.90;71.30;;;;;;5019465;28;20042;-55
2023/08/24 12:45:09;;;;;;;8.38;3.38;;;23.90;71.20;;;;;;5052851;28;20040;-54
2023/08/24 12:47:38;;;;;;;4.60;2.50;;;23.90;71.80;;;;;;5048245;28;20365;-50
2023/08/24 12:50:06;;;;;;;7.72;3.58;;;24.00;71.90;;;;;;5024313;28;20059;-52
2023/08/24 12:52:34;;;;;;;5.10;2.40;;;24.10;69.60;;;;;;5034981;28;20372;-52
2023/08/24 12:55:03;;;;;;;4.65;2.80;;;24.20;71.10;;;;;;5014967;28;20116;-55
2023/08/24 12:57:29;;;;;;;8.10;3.63;;;24.30;70.60;;;;;;5028163;28;20034;-55